East Union, Washington
Current Conditions -  °F | °C
As of 12:53 PM on Monday 24 Nov 2014 (Local Time) from KBFI Reporting Station
Overcast Overcast  
Wind Chill:   Ceiling: 3500
Heat Index:   Visibility: 10mi
Dew Point:   Wind: 9mph
Humidity: 66%   Direction: 140°SE
Pressure: 30.25"   Gusts: NA
Location:  47.6108°N, 122.302°W
Report Text: KBFI 242053Z 14008KT 10SM BKN035 OVC050 09/03 A3025 RMK AO2 RAB03E19 SLP244 P0000 60000 T00940033 58029
Loading
Personal Weather Stations






























Interactive Weather Map New forecast layout! Learn more

10-Day Weather Forecast

Advertisements
Track Severe Weather on mobile